sensor_id;sensor_type;location;lat;lon;timestamp;temperature;humidity
54516;DHT22;40422;45.892;4.738;2023-07-20T03:00:34;19.30;99.90
54516;DHT22;40422;45.892;4.738;2023-07-20T03:03:01;19.30;99.90
54516;DHT22;40422;45.892;4.738;2023-07-20T03:05:26;19.40;99.90
54516;DHT22;40422;45.892;4.738;2023-07-20T03:07:53;19.40;99.90
54516;DHT22;40422;45.892;4.738;2023-07-20T03:10:19;19.40;99.90
54516;DHT22;40422;45.892;4.738;2023-07-20T03:12:44;19.40;99.90
54516;DHT22;40422;45.892;4.738;2023-07-20T03:15:10;19.40;99.90
54516;DHT22;40422;45.892;4.738;2023-07-20T03:17:36;19.40;99.90
54516;DHT22;40422;45.892;4.738;2023-07-20T03:20:01;19.30;99.90
54516;DHT22;40422;45.892;4.738;2023-07-20T03:22:28;19.30;99.90
54516;DHT22;40422;45.892;4.738;2023-07-20T03:24:53;19.10;99.90
54516;DHT22;40422;45.892;4.738;2023-07-20T03:27:19;19.00;99.90
54516;DHT22;40422;45.892;4.738;2023-07-20T03:29:44;19.00;99.90
54516;DHT22;40422;45.892;4.738;2023-07-20T03:32:10;19.10;99.90
54516;DHT22;40422;45.892;4.738;2023-07-20T03:34:36;19.00;99.90
54516;DHT22;40422;45.892;4.738;2023-07-20T03:37:02;19.00;99.90
54516;DHT22;40422;45.892;4.738;2023-07-20T03:39:30;19.00;99.90
54516;DHT22;40422;45.892;4.738;2023-07-20T03:41:57;19.00;99.90
54516;DHT22;40422;45.892;4.738;2023-07-20T03:44:22;19.10;99.90
54516;DHT22;40422;45.892;4.738;2023-07-20T03:46:48;19.10;99.90
54516;DHT22;40422;45.892;4.738;2023-07-20T03:49:13;19.10;99.90
54516;DHT22;40422;45.892;4.738;2023-07-20T03:51:39;19.20;99.90
54516;DHT22;40422;45.892;4.738;2023-07-20T03:54:05;19.20;99.90
54516;DHT22;40422;45.892;4.738;2023-07-20T03:56:30;19.20;99.90
54516;DHT22;40422;45.892;4.738;2023-07-20T03:58:59;19.20;99.90
54516;DHT22;40422;45.892;4.738;2023-07-20T04:01:25;19.20;99.90
54516;DHT22;40422;45.892;4.738;2023-07-20T04:03:50;19.20;99.90
54516;DHT22;40422;45.892;4.738;2023-07-20T04:06:16;19.20;99.90
54516;DHT22;40422;45.892;4.738;2023-07-20T04:08:43;19.20;99.90
54516;DHT22;40422;45.892;4.738;2023-07-20T04:11:09;19.20;99.90
54516;DHT22;40422;45.892;4.738;2023-07-20T04:13:35;19.20;99.90
54516;DHT22;40422;45.892;4.738;2023-07-20T04:16:00;19.30;99.90
54516;DHT22;40422;45.892;4.738;2023-07-20T04:18:26;19.30;99.90
54516;DHT22;40422;45.892;4.738;2023-07-20T04:20:51;19.40;99.90
54516;DHT22;40422;45.892;4.738;2023-07-20T04:23:17;19.40;99.90
54516;DHT22;40422;45.892;4.738;2023-07-20T04:25:43;19.40;99.90
54516;DHT22;40422;45.892;4.738;2023-07-20T04:28:09;19.50;99.90
54516;DHT22;40422;45.892;4.738;2023-07-20T04:30:38;19.50;99.90
54516;DHT22;40422;45.892;4.738;2023-07-20T04:33:05;19.40;99.90
54516;DHT22;40422;45.892;4.738;2023-07-20T04:35:52;19.40;99.90
54516;DHT22;40422;45.892;4.738;2023-07-20T04:38:18;19.50;99.90
54516;DHT22;40422;45.892;4.738;2023-07-20T04:40:45;19.60;99.90
54516;DHT22;40422;45.892;4.738;2023-07-20T04:43:11;19.60;99.90
54516;DHT22;40422;45.892;4.738;2023-07-20T04:45:37;19.60;99.90
54516;DHT22;40422;45.892;4.738;2023-07-20T04:48:02;19.70;99.90
54516;DHT22;40422;45.892;4.738;2023-07-20T04:50:28;19.80;99.90
54516;DHT22;40422;45.892;4.738;2023-07-20T04:52:54;19.90;99.90
54516;DHT22;40422;45.892;4.738;2023-07-20T04:55:19;19.90;99.90
54516;DHT22;40422;45.892;4.738;2023-07-20T04:57:45;20.00;99.90
54516;DHT22;40422;45.892;4.738;2023-07-20T05:00:11;20.10;99.90
54516;DHT22;40422;45.892;4.738;2023-07-20T05:02:38;20.10;99.90
54516;DHT22;40422;45.892;4.738;2023-07-20T05:05:04;20.30;99.90
54516;DHT22;40422;45.892;4.738;2023-07-20T05:07:31;20.40;99.90
54516;DHT22;40422;45.892;4.738;2023-07-20T05:09:57;20.60;99.90
54516;DHT22;40422;45.892;4.738;2023-07-20T05:12:23;20.70;99.90
54516;DHT22;40422;45.892;4.738;2023-07-20T05:14:48;20.80;99.90
54516;DHT22;40422;45.892;4.738;2023-07-20T05:17:14;20.90;99.90
54516;DHT22;40422;45.892;4.738;2023-07-20T05:19:40;21.00;99.90
54516;DHT22;40422;45.892;4.738;2023-07-20T05:22:05;21.20;99.90
54516;DHT22;40422;45.892;4.738;2023-07-20T05:24:31;21.40;99.90
54516;DHT22;40422;45.892;4.738;2023-07-20T05:26:58;21.60;99.90
54516;DHT22;40422;45.892;4.738;2023-07-20T05:29:24;21.70;99.90
54516;DHT22;40422;45.892;4.738;2023-07-20T05:31:50;22.00;99.90
54516;DHT22;40422;45.892;4.738;2023-07-20T05:34:16;22.20;99.90
54516;DHT22;40422;45.892;4.738;2023-07-20T05:36:42;22.40;99.90
54516;DHT22;40422;45.892;4.738;2023-07-20T05:39:26;22.50;99.90
54516;DHT22;40422;45.892;4.738;2023-07-20T05:41:52;22.70;99.90
54516;DHT22;40422;45.892;4.738;2023-07-20T05:44:17;22.80;99.90
54516;DHT22;40422;45.892;4.738;2023-07-20T05:46:43;22.80;99.90
54516;DHT22;40422;45.892;4.738;2023-07-20T05:49:09;22.90;99.90
54516;DHT22;40422;45.892;4.738;2023-07-20T05:51:35;23.00;99.90
54516;DHT22;40422;45.892;4.738;2023-07-20T05:54:01;23.20;99.90
54516;DHT22;40422;45.892;4.738;2023-07-20T05:56:27;23.30;99.90
54516;DHT22;40422;45.892;4.738;2023-07-20T05:58:53;23.30;99.90
54516;DHT22;40422;45.892;4.738;2023-07-20T06:01:19;23.30;99.90
54516;DHT22;40422;45.892;4.738;2023-07-20T06:03:45;23.50;99.90
54516;DHT22;40422;45.892;4.738;2023-07-20T06:06:10;23.50;99.90
54516;DHT22;40422;45.892;4.738;2023-07-20T06:08:37;23.50;99.90
54516;DHT22;40422;45.892;4.738;2023-07-20T06:11:03;23.40;99.90
54516;DHT22;40422;45.892;4.738;2023-07-20T06:13:29;23.50;99.90
54516;DHT22;40422;45.892;4.738;2023-07-20T06:15:55;23.60;99.90
54516;DHT22;40422;45.892;4.738;2023-07-20T06:18:23;23.60;99.90
54516;DHT22;40422;45.892;4.738;2023-07-20T06:20:50;23.70;99.90
54516;DHT22;40422;45.892;4.738;2023-07-20T06:23:16;23.80;99.90
54516;DHT22;40422;45.892;4.738;2023-07-20T06:25:42;23.70;99.90
54516;DHT22;40422;45.892;4.738;2023-07-20T06:28:08;23.80;99.70
54516;DHT22;40422;45.892;4.738;2023-07-20T06:30:36;23.80;99.90
54516;DHT22;40422;45.892;4.738;2023-07-20T06:33:02;23.80;99.90
54516;DHT22;40422;45.892;4.738;2023-07-20T06:35:27;23.90;99.90
54516;DHT22;40422;45.892;4.738;2023-07-20T06:37:53;23.90;99.90
54516;DHT22;40422;45.892;4.738;2023-07-20T06:40:19;24.10;99.90
54516;DHT22;40422;45.892;4.738;2023-07-20T06:42:44;24.30;99.90
54516;DHT22;40422;45.892;4.738;2023-07-20T06:45:10;24.40;99.90
54516;DHT22;40422;45.892;4.738;2023-07-20T06:47:41;24.50;99.00
54516;DHT22;40422;45.892;4.738;2023-07-20T06:50:09;24.50;99.90
54516;DHT22;40422;45.892;4.738;2023-07-20T06:52:34;24.60;99.50
54516;DHT22;40422;45.892;4.738;2023-07-20T06:55:00;24.50;98.10
54516;DHT22;40422;45.892;4.738;2023-07-20T06:57:26;24.50;99.00
54516;DHT22;40422;45.892;4.738;2023-07-20T06:59:51;24.50;98.90
54516;DHT22;40422;45.892;4.738;2023-07-20T07:02:19;24.70;99.90
54516;DHT22;40422;45.892;4.738;2023-07-20T07:04:44;24.80;97.40
54516;DHT22;40422;45.892;4.738;2023-07-20T07:07:11;24.60;94.40
54516;DHT22;40422;45.892;4.738;2023-07-20T07:09:36;24.40;94.80
54516;DHT22;40422;45.892;4.738;2023-07-20T07:12:02;24.20;93.50
54516;DHT22;40422;45.892;4.738;2023-07-20T07:14:29;24.30;95.00
54516;DHT22;40422;45.892;4.738;2023-07-20T07:16:55;24.40;94.60
54516;DHT22;40422;45.892;4.738;2023-07-20T07:19:20;24.50;93.70
54516;DHT22;40422;45.892;4.738;2023-07-20T07:22:06;24.50;93.60
54516;DHT22;40422;45.892;4.738;2023-07-20T07:24:32;24.60;93.70
54516;DHT22;40422;45.892;4.738;2023-07-20T07:27:01;24.80;96.20
54516;DHT22;40422;45.892;4.738;2023-07-20T07:29:27;25.10;94.00
54516;DHT22;40422;45.892;4.738;2023-07-20T07:31:52;25.20;97.00
54516;DHT22;40422;45.892;4.738;2023-07-20T07:34:18;25.20;92.80
54516;DHT22;40422;45.892;4.738;2023-07-20T07:36:44;25.10;92.30
54516;DHT22;40422;45.892;4.738;2023-07-20T07:39:09;25.10;92.70
54516;DHT22;40422;45.892;4.738;2023-07-20T07:41:35;25.00;92.10
54516;DHT22;40422;45.892;4.738;2023-07-20T07:44:01;25.10;91.30
54516;DHT22;40422;45.892;4.738;2023-07-20T07:46:27;25.10;91.00
54516;DHT22;40422;45.892;4.738;2023-07-20T07:48:52;25.30;92.40
54516;DHT22;40422;45.892;4.738;2023-07-20T07:51:18;25.40;91.00
54516;DHT22;40422;45.892;4.738;2023-07-20T07:53:46;25.40;92.40
54516;DHT22;40422;45.892;4.738;2023-07-20T07:56:11;25.50;92.20
54516;DHT22;40422;45.892;4.738;2023-07-20T07:58:37;25.60;91.10
54516;DHT22;40422;45.892;4.738;2023-07-20T08:01:03;25.60;89.30
54516;DHT22;40422;45.892;4.738;2023-07-20T08:03:29;25.50;89.10
54516;DHT22;40422;45.892;4.738;2023-07-20T08:05:55;25.30;88.80
54516;DHT22;40422;45.892;4.738;2023-07-20T08:08:21;25.30;88.70
54516;DHT22;40422;45.892;4.738;2023-07-20T08:10:47;25.40;87.60
54516;DHT22;40422;45.892;4.738;2023-07-20T08:13:13;25.30;87.60
54516;DHT22;40422;45.892;4.738;2023-07-20T08:15:39;25.40;87.90
54516;DHT22;40422;45.892;4.738;2023-07-20T08:18:05;25.50;91.40
54516;DHT22;40422;45.892;4.738;2023-07-20T08:20:31;25.70;90.80
54516;DHT22;40422;45.892;4.738;2023-07-20T08:22:57;25.80;88.20
54516;DHT22;40422;45.892;4.738;2023-07-20T08:25:25;25.90;88.50
54516;DHT22;40422;45.892;4.738;2023-07-20T08:27:51;25.60;88.00
54516;DHT22;40422;45.892;4.738;2023-07-20T08:30:17;25.50;87.90
54516;DHT22;40422;45.892;4.738;2023-07-20T08:32:42;25.40;86.90
54516;DHT22;40422;45.892;4.738;2023-07-20T08:35:08;25.40;86.30
54516;DHT22;40422;45.892;4.738;2023-07-20T08:37:34;25.50;89.60
54516;DHT22;40422;45.892;4.738;2023-07-20T08:40:00;25.90;90.70
54516;DHT22;40422;45.892;4.738;2023-07-20T08:42:27;26.10;86.40
54516;DHT22;40422;45.892;4.738;2023-07-20T08:44:53;26.20;84.40
54516;DHT22;40422;45.892;4.738;2023-07-20T08:47:20;26.20;84.10
54516;DHT22;40422;45.892;4.738;2023-07-20T08:49:48;26.20;83.10
54516;DHT22;40422;45.892;4.738;2023-07-20T08:52:14;26.00;82.90
54516;DHT22;40422;45.892;4.738;2023-07-20T08:54:40;26.10;88.10
54516;DHT22;40422;45.892;4.738;2023-07-20T08:57:11;26.30;83.60
54516;DHT22;40422;45.892;4.738;2023-07-20T08:59:39;26.50;81.40
54516;DHT22;40422;45.892;4.738;2023-07-20T09:02:08;26.70;81.90
54516;DHT22;40422;45.892;4.738;2023-07-20T09:04:37;26.80;82.90
54516;DHT22;40422;45.892;4.738;2023-07-20T09:07:02;27.20;83.50
54516;DHT22;40422;45.892;4.738;2023-07-20T09:09:28;27.50;81.70
54516;DHT22;40422;45.892;4.738;2023-07-20T09:11:54;27.70;81.90
54516;DHT22;40422;45.892;4.738;2023-07-20T09:14:19;27.70;81.30
54516;DHT22;40422;45.892;4.738;2023-07-20T09:19:18;27.80;80.00
54516;DHT22;40422;45.892;4.738;2023-07-20T09:21:48;27.90;82.40
54516;DHT22;40422;45.892;4.738;2023-07-20T09:24:14;28.10;78.60
54516;DHT22;40422;45.892;4.738;2023-07-20T09:26:44;27.80;78.00
54516;DHT22;40422;45.892;4.738;2023-07-20T09:29:10;27.40;79.20
54516;DHT22;40422;45.892;4.738;2023-07-20T09:31:37;27.40;80.10
54516;DHT22;40422;45.892;4.738;2023-07-20T09:34:05;27.70;81.60
54516;DHT22;40422;45.892;4.738;2023-07-20T09:36:34;27.70;79.30
54516;DHT22;40422;45.892;4.738;2023-07-20T09:39:01;27.80;81.20
54516;DHT22;40422;45.892;4.738;2023-07-20T09:41:27;28.00;78.30
54516;DHT22;40422;45.892;4.738;2023-07-20T09:43:53;28.00;77.60
54516;DHT22;40422;45.892;4.738;2023-07-20T09:46:19;28.00;77.80
54516;DHT22;40422;45.892;4.738;2023-07-20T09:48:52;27.90;77.00
54516;DHT22;40422;45.892;4.738;2023-07-20T09:51:24;27.80;78.80
54516;DHT22;40422;45.892;4.738;2023-07-20T09:53:52;27.30;78.10
54516;DHT22;40422;45.892;4.738;2023-07-20T09:56:21;27.00;78.50
54516;DHT22;40422;45.892;4.738;2023-07-20T09:58:49;27.30;79.90
54516;DHT22;40422;45.892;4.738;2023-07-20T10:01:18;27.60;77.50
54516;DHT22;40422;45.892;4.738;2023-07-20T10:03:47;27.70;77.90
54516;DHT22;40422;45.892;4.738;2023-07-20T10:06:20;27.90;78.20
54516;DHT22;40422;45.892;4.738;2023-07-20T10:08:48;28.20;78.30
54516;DHT22;40422;45.892;4.738;2023-07-20T10:11:15;28.50;76.80
54516;DHT22;40422;45.892;4.738;2023-07-20T10:13:43;28.80;75.30
54516;DHT22;40422;45.892;4.738;2023-07-20T10:16:11;29.20;75.40
54516;DHT22;40422;45.892;4.738;2023-07-20T10:19:13;29.50;75.10
54516;DHT22;40422;45.892;4.738;2023-07-20T10:21:47;29.50;71.90
54516;DHT22;40422;45.892;4.738;2023-07-20T10:24:13;29.40;73.50
54516;DHT22;40422;45.892;4.738;2023-07-20T10:26:40;29.70;73.60
54516;DHT22;40422;45.892;4.738;2023-07-20T10:29:05;29.50;72.50
54516;DHT22;40422;45.892;4.738;2023-07-20T10:31:32;29.10;73.20
54516;DHT22;40422;45.892;4.738;2023-07-20T10:34:00;29.20;74.60
54516;DHT22;40422;45.892;4.738;2023-07-20T10:36:27;29.10;74.80
54516;DHT22;40422;45.892;4.738;2023-07-20T10:38:54;29.50;73.20
54516;DHT22;40422;45.892;4.738;2023-07-20T10:41:22;29.80;71.90
54516;DHT22;40422;45.892;4.738;2023-07-20T10:43:50;30.30;73.30
54516;DHT22;40422;45.892;4.738;2023-07-20T10:46:34;30.30;71.10
54516;DHT22;40422;45.892;4.738;2023-07-20T10:49:00;29.90;71.80
54516;DHT22;40422;45.892;4.738;2023-07-20T10:51:28;29.70;70.90
54516;DHT22;40422;45.892;4.738;2023-07-20T10:53:58;29.80;70.60
54516;DHT22;40422;45.892;4.738;2023-07-20T10:56:27;29.90;70.50
54516;DHT22;40422;45.892;4.738;2023-07-20T10:59:00;30.00;70.70
54516;DHT22;40422;45.892;4.738;2023-07-20T11:01:30;30.10;70.20
54516;DHT22;40422;45.892;4.738;2023-07-20T11:04:08;30.00;71.40
54516;DHT22;40422;45.892;4.738;2023-07-20T11:06:34;30.00;70.50
54516;DHT22;40422;45.892;4.738;2023-07-20T11:09:11;30.10;70.60
54516;DHT22;40422;45.892;4.738;2023-07-20T11:11:46;30.50;70.00
54516;DHT22;40422;45.892;4.738;2023-07-20T11:14:23;30.90;70.60
54516;DHT22;40422;45.892;4.738;2023-07-20T11:16:50;31.00;67.00
54516;DHT22;40422;45.892;4.738;2023-07-20T11:19:25;30.70;67.70
54516;DHT22;40422;45.892;4.738;2023-07-20T11:21:56;30.90;68.40
54516;DHT22;40422;45.892;4.738;2023-07-20T11:24:23;30.80;69.00
54516;DHT22;40422;45.892;4.738;2023-07-20T11:26:51;30.80;68.00
54516;DHT22;40422;45.892;4.738;2023-07-20T11:29:18;30.40;68.10
54516;DHT22;40422;45.892;4.738;2023-07-20T11:31:45;30.60;68.40
54516;DHT22;40422;45.892;4.738;2023-07-20T11:34:15;31.10;68.20
54516;DHT22;40422;45.892;4.738;2023-07-20T11:36:43;31.60;66.70
54516;DHT22;40422;45.892;4.738;2023-07-20T11:39:16;31.90;68.20
54516;DHT22;40422;45.892;4.738;2023-07-20T11:41:48;32.30;65.10
54516;DHT22;40422;45.892;4.738;2023-07-20T11:44:16;32.60;64.50
54516;DHT22;40422;45.892;4.738;2023-07-20T11:46:43;32.80;65.60
54516;DHT22;40422;45.892;4.738;2023-07-20T11:49:10;33.00;64.20
54516;DHT22;40422;45.892;4.738;2023-07-20T11:51:36;32.80;63.00
54516;DHT22;40422;45.892;4.738;2023-07-20T11:54:04;32.60;62.90
54516;DHT22;40422;45.892;4.738;2023-07-20T11:56:30;32.80;65.20
54516;DHT22;40422;45.892;4.738;2023-07-20T11:58:58;33.00;64.00
54516;DHT22;40422;45.892;4.738;2023-07-20T12:01:26;33.60;64.80
54516;DHT22;40422;45.892;4.738;2023-07-20T12:03:57;33.90;61.60
54516;DHT22;40422;45.892;4.738;2023-07-20T12:06:24;33.90;60.40
54516;DHT22;40422;45.892;4.738;2023-07-20T12:08:51;33.10;61.90
54516;DHT22;40422;45.892;4.738;2023-07-20T12:11:36;32.80;62.10
54516;DHT22;40422;45.892;4.738;2023-07-20T12:14:04;32.80;63.10
54516;DHT22;40422;45.892;4.738;2023-07-20T12:16:30;33.30;63.60
54516;DHT22;40422;45.892;4.738;2023-07-20T12:19:24;33.50;61.20
54516;DHT22;40422;45.892;4.738;2023-07-20T12:21:50;33.60;60.80
54516;DHT22;40422;45.892;4.738;2023-07-20T12:24:21;33.60;61.90
54516;DHT22;40422;45.892;4.738;2023-07-20T12:26:47;33.40;61.50
54516;DHT22;40422;45.892;4.738;2023-07-20T12:29:13;33.40;61.20
54516;DHT22;40422;45.892;4.738;2023-07-20T12:31:38;33.10;61.00
54516;DHT22;40422;45.892;4.738;2023-07-20T12:34:04;33.00;60.30
54516;DHT22;40422;45.892;4.738;2023-07-20T12:36:29;33.10;60.00
54516;DHT22;40422;45.892;4.738;2023-07-20T12:38:56;33.10;60.40
54516;DHT22;40422;45.892;4.738;2023-07-20T12:41:22;33.60;60.50
54516;DHT22;40422;45.892;4.738;2023-07-20T12:43:47;33.70;58.60
54516;DHT22;40422;45.892;4.738;2023-07-20T12:46:13;33.90;60.30
54516;DHT22;40422;45.892;4.738;2023-07-20T12:48:40;34.20;60.20
54516;DHT22;40422;45.892;4.738;2023-07-20T12:51:08;34.70;59.60
54516;DHT22;40422;45.892;4.738;2023-07-20T12:53:34;35.20;58.60
54516;DHT22;40422;45.892;4.738;2023-07-20T12:56:00;34.90;58.40
54516;DHT22;40422;45.892;4.738;2023-07-20T12:58:26;34.50;59.80
54516;DHT22;40422;45.892;4.738;2023-07-20T13:00:52;34.80;61.40
54516;DHT22;40422;45.892;4.738;2023-07-20T13:03:17;35.20;58.40
54516;DHT22;40422;45.892;4.738;2023-07-20T13:05:45;35.20;58.60
54516;DHT22;40422;45.892;4.738;2023-07-20T13:08:10;34.90;58.60
54516;DHT22;40422;45.892;4.738;2023-07-20T13:10:37;34.60;58.70
54516;DHT22;40422;45.892;4.738;2023-07-20T13:13:04;34.90;58.80
54516;DHT22;40422;45.892;4.738;2023-07-20T13:15:31;34.90;58.50
54516;DHT22;40422;45.892;4.738;2023-07-20T13:17:57;35.00;58.50
54516;DHT22;40422;45.892;4.738;2023-07-20T13:20:23;34.80;58.20
54516;DHT22;40422;45.892;4.738;2023-07-20T13:22:49;34.10;58.60
54516;DHT22;40422;45.892;4.738;2023-07-20T13:25:14;34.00;59.80
54516;DHT22;40422;45.892;4.738;2023-07-20T13:27:40;34.20;60.60
54516;DHT22;40422;45.892;4.738;2023-07-20T13:30:06;34.70;59.20
54516;DHT22;40422;45.892;4.738;2023-07-20T13:32:35;35.30;58.70
54516;DHT22;40422;45.892;4.738;2023-07-20T13:35:02;35.90;58.10
54516;DHT22;40422;45.892;4.738;2023-07-20T13:37:28;36.30;57.10
54516;DHT22;40422;45.892;4.738;2023-07-20T13:39:54;36.10;57.20
54516;DHT22;40422;45.892;4.738;2023-07-20T13:42:20;35.80;55.70
54516;DHT22;40422;45.892;4.738;2023-07-20T13:44:47;35.80;57.00
54516;DHT22;40422;45.892;4.738;2023-07-20T13:47:13;35.90;58.40
54516;DHT22;40422;45.892;4.738;2023-07-20T13:49:39;36.20;57.10
54516;DHT22;40422;45.892;4.738;2023-07-20T13:52:05;36.60;56.40
54516;DHT22;40422;45.892;4.738;2023-07-20T13:54:31;36.60;56.00
54516;DHT22;40422;45.892;4.738;2023-07-20T13:56:57;35.90;55.50
54516;DHT22;40422;45.892;4.738;2023-07-20T13:59:23;35.80;57.40
54516;DHT22;40422;45.892;4.738;2023-07-20T14:01:48;36.10;56.80
54516;DHT22;40422;45.892;4.738;2023-07-20T14:04:14;36.30;55.40
54516;DHT22;40422;45.892;4.738;2023-07-20T14:06:40;35.90;55.80
54516;DHT22;40422;45.892;4.738;2023-07-20T14:09:06;36.20;56.40
54516;DHT22;40422;45.892;4.738;2023-07-20T14:11:32;36.60;56.10
54516;DHT22;40422;45.892;4.738;2023-07-20T14:13:57;36.90;54.90
54516;DHT22;40422;45.892;4.738;2023-07-20T14:16:25;36.30;54.70
54516;DHT22;40422;45.892;4.738;2023-07-20T14:18:51;36.30;56.00
54516;DHT22;40422;45.892;4.738;2023-07-20T14:21:18;36.70;55.00
54516;DHT22;40422;45.892;4.738;2023-07-20T14:23:48;37.00;54.40
54516;DHT22;40422;45.892;4.738;2023-07-20T14:26:15;37.30;53.90
54516;DHT22;40422;45.892;4.738;2023-07-20T14:28:41;37.50;54.20
54516;DHT22;40422;45.892;4.738;2023-07-20T14:31:07;37.10;54.30
54516;DHT22;40422;45.892;4.738;2023-07-20T14:33:34;37.00;54.10
54516;DHT22;40422;45.892;4.738;2023-07-20T14:36:00;37.10;53.60
54516;DHT22;40422;45.892;4.738;2023-07-20T14:38:30;37.40;53.80
54516;DHT22;40422;45.892;4.738;2023-07-20T14:40:56;37.30;53.90
54516;DHT22;40422;45.892;4.738;2023-07-20T14:43:22;37.10;54.70
54516;DHT22;40422;45.892;4.738;2023-07-20T14:45:48;36.80;54.40
54516;DHT22;40422;45.892;4.738;2023-07-20T14:48:13;36.80;53.90
54516;DHT22;40422;45.892;4.738;2023-07-20T14:50:39;36.80;53.90
54516;DHT22;40422;45.892;4.738;2023-07-20T14:53:05;37.00;54.70
54516;DHT22;40422;45.892;4.738;2023-07-20T14:55:46;36.70;54.60
54516;DHT22;40422;45.892;4.738;2023-07-20T14:58:12;36.00;54.90
54516;DHT22;40422;45.892;4.738;2023-07-20T15:00:38;35.70;55.90
54516;DHT22;40422;45.892;4.738;2023-07-20T15:03:12;35.40;56.20
54516;DHT22;40422;45.892;4.738;2023-07-20T15:05:37;35.40;55.40
54516;DHT22;40422;45.892;4.738;2023-07-20T15:08:03;35.70;55.40
54516;DHT22;40422;45.892;4.738;2023-07-20T15:10:31;35.70;55.50
54516;DHT22;40422;45.892;4.738;2023-07-20T15:12:58;35.90;56.30
54516;DHT22;40422;45.892;4.738;2023-07-20T15:15:23;35.50;56.10
54516;DHT22;40422;45.892;4.738;2023-07-20T15:17:49;35.00;56.60
54516;DHT22;40422;45.892;4.738;2023-07-20T15:20:17;34.80;55.60
54516;DHT22;40422;45.892;4.738;2023-07-20T15:22:46;34.80;56.50
54516;DHT22;40422;45.892;4.738;2023-07-20T15:25:12;35.20;56.30
54516;DHT22;40422;45.892;4.738;2023-07-20T15:27:39;35.20;56.50
54516;DHT22;40422;45.892;4.738;2023-07-20T15:30:14;35.40;56.00
54516;DHT22;40422;45.892;4.738;2023-07-20T15:32:40;35.70;55.60
54516;DHT22;40422;45.892;4.738;2023-07-20T15:35:11;35.70;55.00
54516;DHT22;40422;45.892;4.738;2023-07-20T15:37:37;35.80;55.30
54516;DHT22;40422;45.892;4.738;2023-07-20T15:40:03;35.70;54.80
54516;DHT22;40422;45.892;4.738;2023-07-20T15:42:31;35.30;55.60
54516;DHT22;40422;45.892;4.738;2023-07-20T15:44:57;35.30;56.40
54516;DHT22;40422;45.892;4.738;2023-07-20T15:47:23;35.10;56.20
54516;DHT22;40422;45.892;4.738;2023-07-20T15:49:48;35.40;56.00
54516;DHT22;40422;45.892;4.738;2023-07-20T15:52:15;35.40;55.00
54516;DHT22;40422;45.892;4.738;2023-07-20T15:54:41;35.30;56.00
54516;DHT22;40422;45.892;4.738;2023-07-20T15:57:07;35.50;55.80
54516;DHT22;40422;45.892;4.738;2023-07-20T15:59:33;35.60;55.70
54516;DHT22;40422;45.892;4.738;2023-07-20T16:02:00;35.80;55.60
54516;DHT22;40422;45.892;4.738;2023-07-20T16:04:26;35.60;55.20
54516;DHT22;40422;45.892;4.738;2023-07-20T16:06:51;35.50;55.20
54516;DHT22;40422;45.892;4.738;2023-07-20T16:09:17;35.50;55.40
54516;DHT22;40422;45.892;4.738;2023-07-20T16:11:43;35.60;55.10
54516;DHT22;40422;45.892;4.738;2023-07-20T16:14:08;35.90;54.90
54516;DHT22;40422;45.892;4.738;2023-07-20T16:16:35;35.90;55.40
54516;DHT22;40422;45.892;4.738;2023-07-20T16:19:01;36.00;55.40
54516;DHT22;40422;45.892;4.738;2023-07-20T16:21:26;36.00;54.60
54516;DHT22;40422;45.892;4.738;2023-07-20T16:23:52;35.80;54.90
54516;DHT22;40422;45.892;4.738;2023-07-20T16:26:18;35.60;55.40
54516;DHT22;40422;45.892;4.738;2023-07-20T16:28:43;35.50;55.00
54516;DHT22;40422;45.892;4.738;2023-07-20T16:31:13;35.20;55.70
54516;DHT22;40422;45.892;4.738;2023-07-20T16:33:39;35.20;55.50
54516;DHT22;40422;45.892;4.738;2023-07-20T16:36:13;35.40;55.50
54516;DHT22;40422;45.892;4.738;2023-07-20T16:38:40;35.70;54.80
54516;DHT22;40422;45.892;4.738;2023-07-20T16:41:07;35.90;54.60
54516;DHT22;40422;45.892;4.738;2023-07-20T16:43:34;35.90;54.10
54516;DHT22;40422;45.892;4.738;2023-07-20T16:46:03;35.80;54.30
54516;DHT22;40422;45.892;4.738;2023-07-20T16:48:29;35.40;54.80
54516;DHT22;40422;45.892;4.738;2023-07-20T16:50:56;35.20;55.20
54516;DHT22;40422;45.892;4.738;2023-07-20T16:53:22;35.20;54.70
54516;DHT22;40422;45.892;4.738;2023-07-20T16:55:49;35.20;55.00
54516;DHT22;40422;45.892;4.738;2023-07-20T16:58:19;35.40;54.60
54516;DHT22;40422;45.892;4.738;2023-07-20T17:00:46;35.40;54.80
54516;DHT22;40422;45.892;4.738;2023-07-20T17:03:15;35.70;54.60
54516;DHT22;40422;45.892;4.738;2023-07-20T17:05:44;35.80;54.20
54516;DHT22;40422;45.892;4.738;2023-07-20T17:08:11;35.90;54.00
54516;DHT22;40422;45.892;4.738;2023-07-20T17:10:37;35.90;54.10
54516;DHT22;40422;45.892;4.738;2023-07-20T17:13:09;35.80;54.40
54516;DHT22;40422;45.892;4.738;2023-07-20T17:15:36;35.70;54.90
54516;DHT22;40422;45.892;4.738;2023-07-20T17:18:04;35.50;55.30
54516;DHT22;40422;45.892;4.738;2023-07-20T17:20:30;35.40;55.60
54516;DHT22;40422;45.892;4.738;2023-07-20T17:22:56;35.40;55.60
54516;DHT22;40422;45.892;4.738;2023-07-20T17:25:24;35.20;55.10
54516;DHT22;40422;45.892;4.738;2023-07-20T17:27:49;35.00;55.70
54516;DHT22;40422;45.892;4.738;2023-07-20T17:30:15;35.10;56.00
54516;DHT22;40422;45.892;4.738;2023-07-20T17:32:42;35.20;55.70
54516;DHT22;40422;45.892;4.738;2023-07-20T17:35:08;34.90;55.40
54516;DHT22;40422;45.892;4.738;2023-07-20T17:37:39;34.60;55.90
54516;DHT22;40422;45.892;4.738;2023-07-20T17:40:13;34.50;55.90
54516;DHT22;40422;45.892;4.738;2023-07-20T17:42:39;34.50;56.20
54516;DHT22;40422;45.892;4.738;2023-07-20T17:45:06;34.50;56.40
54516;DHT22;40422;45.892;4.738;2023-07-20T17:47:32;34.60;56.00
54516;DHT22;40422;45.892;4.738;2023-07-20T17:49:58;34.50;56.30
54516;DHT22;40422;45.892;4.738;2023-07-20T17:52:23;34.50;56.70
54516;DHT22;40422;45.892;4.738;2023-07-20T17:54:49;34.50;57.00
54516;DHT22;40422;45.892;4.738;2023-07-20T17:57:15;34.40;57.00
54516;DHT22;40422;45.892;4.738;2023-07-20T17:59:41;34.30;57.10
54516;DHT22;40422;45.892;4.738;2023-07-20T18:02:07;34.20;57.10
54516;DHT22;40422;45.892;4.738;2023-07-20T18:04:34;34.00;57.20
54516;DHT22;40422;45.892;4.738;2023-07-20T18:07:00;33.90;57.30
54516;DHT22;40422;45.892;4.738;2023-07-20T18:09:26;33.90;57.90
54516;DHT22;40422;45.892;4.738;2023-07-20T18:11:52;33.70;57.80
54516;DHT22;40422;45.892;4.738;2023-07-20T18:14:17;33.60;57.80
54516;DHT22;40422;45.892;4.738;2023-07-20T18:16:43;33.60;58.00
54516;DHT22;40422;45.892;4.738;2023-07-20T18:19:09;33.50;58.10
54516;DHT22;40422;45.892;4.738;2023-07-20T18:21:34;33.50;58.10
54516;DHT22;40422;45.892;4.738;2023-07-20T18:24:00;33.40;59.10
54516;DHT22;40422;45.892;4.738;2023-07-20T18:26:25;33.40;58.30
54516;DHT22;40422;45.892;4.738;2023-07-20T18:28:51;33.20;58.50
54516;DHT22;40422;45.892;4.738;2023-07-20T18:31:18;33.00;58.50